TimeMDT,TemperatureF,Dew PointF,Humidity,Sea Level PressureIn,VisibilityMPH,Wind Direction,Wind SpeedMPH,Gust SpeedMPH,PrecipitationIn,Events,Conditions,WindDirDegrees,DateUTC
12:54 AM,33.1,27.0,78,30.04,10.0,ESE,4.6,-,N/A,,Clear,120,2012-10-10 06:54:00
1:54 AM,32.0,27.0,82,30.01,10.0,Calm,Calm,-,N/A,,Clear,0,2012-10-10 07:54:00
2:54 AM,34.0,27.0,75,29.97,10.0,ESE,3.5,-,N/A,,Clear,110,2012-10-10 08:54:00
3:54 AM,32.0,27.0,82,29.96,10.0,Calm,Calm,-,N/A,,Clear,0,2012-10-10 09:54:00
4:54 AM,41.0,28.0,60,29.92,10.0,Calm,Calm,-,N/A,,Clear,0,2012-10-10 10:54:00
5:54 AM,37.0,28.9,73,29.93,10.0,Calm,Calm,-,N/A,,Clear,0,2012-10-10 11:54:00
6:54 AM,34.0,28.0,79,29.96,10.0,ESE,4.6,-,N/A,,Clear,110,2012-10-10 12:54:00
7:54 AM,35.1,28.9,78,29.96,10.0,North,-9999.0,-,N/A,,Clear,0,2012-10-10 13:54:00
8:54 AM,41.0,32.0,70,29.95,10.0,ESE,4.6,-,N/A,,Clear,120,2012-10-10 14:54:00
9:54 AM,51.1,32.0,48,29.94,10.0,North,-9999.0,-,N/A,,Clear,0,2012-10-10 15:54:00
10:54 AM,57.9,30.0,35,29.92,10.0,WNW,11.5,-,N/A,,Clear,290,2012-10-10 16:54:00
11:54 AM,59.0,30.9,35,29.94,10.0,NW,12.7,19.6,N/A,,Clear,320,2012-10-10 17:54:00
12:54 PM,61.0,30.9,32,29.93,10.0,NW,12.7,23.0,N/A,,Clear,310,2012-10-10 18:54:00
1:54 PM,60.1,30.9,33,29.92,10.0,NW,15.0,25.3,N/A,,Clear,320,2012-10-10 19:54:00
2:54 PM,61.0,33.1,35,29.91,10.0,NW,15.0,24.2,N/A,,Clear,320,2012-10-10 20:54:00
3:54 PM,57.0,36.0,45,29.94,10.0,WNW,15.0,20.7,N/A,,Clear,300,2012-10-10 21:54:00
4:54 PM,55.9,37.0,49,29.94,10.0,NNW,12.7,20.7,N/A,,Clear,340,2012-10-10 22:54:00
5:54 PM,53.1,37.9,57,29.99,10.0,North,9.2,-,N/A,,Clear,360,2012-10-10 23:54:00
6:54 PM,48.0,37.0,66,30.04,10.0,NNW,9.2,-,N/A,,Overcast,340,2012-10-11 00:54:00
7:54 PM,45.0,36.0,71,30.07,10.0,North,13.8,21.9,N/A,,Overcast,360,2012-10-11 01:54:00
8:54 PM,43.0,35.1,74,30.09,10.0,North,11.5,-,N/A,,Overcast,10,2012-10-11 02:54:00
9:54 PM,41.0,34.0,76,30.09,10.0,North,11.5,-,N/A,,Overcast,360,2012-10-11 03:54:00
10:24 PM,41.0,33.8,76,30.10,10.0,North,6.9,-,N/A,,Overcast,10,2012-10-11 04:24:00
10:54 PM,41.0,34.0,76,30.10,10.0,North,8.1,-,N/A,,Overcast,350,2012-10-11 04:54:00
11:22 PM,39.2,35.6,87,30.12,4.0,Calm,Calm,-,0.00,Rain,Light Rain,0,2012-10-11 05:22:00
11:35 PM,39.2,37.4,93,30.13,3.0,ESE,8.1,-,0.01,Rain,Light Rain,120,2012-10-11 05:35:00
11:49 PM,39.2,37.4,93,30.13,3.0,ESE,6.9,-,0.01,Rain,Light Rain,120,2012-10-11 05:49:00
11:54 PM,39.0,37.9,96,30.12,3.0,ESE,5.8,-,0.01,Rain,Light Rain,120,2012-10-11 05:54:00